sensor_id;sensor_type;location;lat;lon;timestamp;P1;durP1;ratioP1;P2;durP2;ratioP2
41115;SDS011;26861;51.824;4.682;2022-09-09T00:00:12;0.50;;;0.15;;
41115;SDS011;26861;51.824;4.682;2022-09-09T00:02:39;0.75;;;0.20;;
41115;SDS011;26861;51.824;4.682;2022-09-09T00:07:46;0.60;;;0.30;;
41115;SDS011;26861;51.824;4.682;2022-09-09T00:10:19;1.10;;;0.20;;
41115;SDS011;26861;51.824;4.682;2022-09-09T00:15:47;1.55;;;0.30;;
41115;SDS011;26861;51.824;4.682;2022-09-09T00:18:40;0.43;;;0.20;;
41115;SDS011;26861;51.824;4.682;2022-09-09T00:21:28;1.95;;;0.50;;
41115;SDS011;26861;51.824;4.682;2022-09-09T00:23:58;2.13;;;0.30;;
41115;SDS011;26861;51.824;4.682;2022-09-09T00:29:09;0.75;;;0.32;;
41115;SDS011;26861;51.824;4.682;2022-09-09T00:31:57;0.95;;;0.30;;
41115;SDS011;26861;51.824;4.682;2022-09-09T00:34:30;0.70;;;0.30;;
41115;SDS011;26861;51.824;4.682;2022-09-09T00:36:57;0.60;;;0.40;;
41115;SDS011;26861;51.824;4.682;2022-09-09T00:39:29;1.02;;;0.30;;
41115;SDS011;26861;51.824;4.682;2022-09-09T00:44:53;0.70;;;0.40;;
41115;SDS011;26861;51.824;4.682;2022-09-09T00:47:43;1.50;;;0.40;;
41115;SDS011;26861;51.824;4.682;2022-09-09T00:57:57;1.38;;;0.40;;
41115;SDS011;26861;51.824;4.682;2022-09-09T01:00:27;1.17;;;0.30;;
41115;SDS011;26861;51.824;4.682;2022-09-09T01:05:51;0.60;;;0.30;;
41115;SDS011;26861;51.824;4.682;2022-09-09T01:11:03;1.48;;;0.50;;
41115;SDS011;26861;51.824;4.682;2022-09-09T01:13:31;0.73;;;0.30;;
41115;SDS011;26861;51.824;4.682;2022-09-09T01:16:00;1.02;;;0.40;;
41115;SDS011;26861;51.824;4.682;2022-09-09T01:18:31;0.90;;;0.30;;
41115;SDS011;26861;51.824;4.682;2022-09-09T01:26:18;0.13;;;0.10;;
41115;SDS011;26861;51.824;4.682;2022-09-09T01:29:01;1.67;;;0.30;;
41115;SDS011;26861;51.824;4.682;2022-09-09T01:34:30;1.08;;;0.28;;
41115;SDS011;26861;51.824;4.682;2022-09-09T01:37:04;0.93;;;0.40;;
41115;SDS011;26861;51.824;4.682;2022-09-09T01:39:32;3.70;;;0.40;;
41115;SDS011;26861;51.824;4.682;2022-09-09T01:41:59;0.43;;;0.30;;
41115;SDS011;26861;51.824;4.682;2022-09-09T01:44:25;1.13;;;0.35;;
41115;SDS011;26861;51.824;4.682;2022-09-09T01:46:52;1.52;;;0.30;;
41115;SDS011;26861;51.824;4.682;2022-09-09T01:49:18;1.67;;;0.40;;
41115;SDS011;26861;51.824;4.682;2022-09-09T01:51:44;0.77;;;0.40;;
41115;SDS011;26861;51.824;4.682;2022-09-09T01:54:14;1.15;;;0.22;;
41115;SDS011;26861;51.824;4.682;2022-09-09T01:56:55;0.95;;;0.43;;
41115;SDS011;26861;51.824;4.682;2022-09-09T02:02:44;0.63;;;0.30;;
41115;SDS011;26861;51.824;4.682;2022-09-09T02:05:36;0.80;;;0.47;;
41115;SDS011;26861;51.824;4.682;2022-09-09T02:10:31;2.25;;;0.50;;
41115;SDS011;26861;51.824;4.682;2022-09-09T02:13:07;3.38;;;0.50;;
41115;SDS011;26861;51.824;4.682;2022-09-09T02:18:04;0.93;;;0.40;;
41115;SDS011;26861;51.824;4.682;2022-09-09T02:20:33;0.77;;;0.30;;
41115;SDS011;26861;51.824;4.682;2022-09-09T02:23:01;2.03;;;0.35;;
41115;SDS011;26861;51.824;4.682;2022-09-09T02:25:29;1.60;;;0.60;;
41115;SDS011;26861;51.824;4.682;2022-09-09T02:27:55;0.85;;;0.32;;
41115;SDS011;26861;51.824;4.682;2022-09-09T02:30:25;0.73;;;0.30;;
41115;SDS011;26861;51.824;4.682;2022-09-09T02:32:54;0.68;;;0.38;;
41115;SDS011;26861;51.824;4.682;2022-09-09T02:35:23;1.45;;;0.50;;
41115;SDS011;26861;51.824;4.682;2022-09-09T02:37:51;1.73;;;0.50;;
41115;SDS011;26861;51.824;4.682;2022-09-09T02:42:47;1.10;;;0.40;;
41115;SDS011;26861;51.824;4.682;2022-09-09T02:45:18;0.90;;;0.30;;
41115;SDS011;26861;51.824;4.682;2022-09-09T02:48:32;1.45;;;0.40;;
41115;SDS011;26861;51.824;4.682;2022-09-09T02:51:08;2.15;;;0.32;;
41115;SDS011;26861;51.824;4.682;2022-09-09T02:54:41;1.67;;;0.40;;
41115;SDS011;26861;51.824;4.682;2022-09-09T02:56:43;0.73;;;0.30;;
41115;SDS011;26861;51.824;4.682;2022-09-09T02:59:15;0.93;;;0.68;;
41115;SDS011;26861;51.824;4.682;2022-09-09T03:01:41;1.75;;;0.47;;
41115;SDS011;26861;51.824;4.682;2022-09-09T03:04:09;0.55;;;0.30;;
41115;SDS011;26861;51.824;4.682;2022-09-09T03:06:34;1.55;;;0.40;;
41115;SDS011;26861;51.824;4.682;2022-09-09T03:09:00;1.88;;;0.45;;
41115;SDS011;26861;51.824;4.682;2022-09-09T03:11:27;0.93;;;0.38;;
41115;SDS011;26861;51.824;4.682;2022-09-09T03:13:54;0.73;;;0.30;;
41115;SDS011;26861;51.824;4.682;2022-09-09T03:16:21;1.38;;;0.40;;
41115;SDS011;26861;51.824;4.682;2022-09-09T03:18:47;2.40;;;0.43;;
41115;SDS011;26861;51.824;4.682;2022-09-09T03:21:13;2.83;;;0.30;;
41115;SDS011;26861;51.824;4.682;2022-09-09T03:23:39;1.88;;;0.40;;
41115;SDS011;26861;51.824;4.682;2022-09-09T03:26:05;0.88;;;0.40;;
41115;SDS011;26861;51.824;4.682;2022-09-09T03:28:31;1.15;;;0.47;;
41115;SDS011;26861;51.824;4.682;2022-09-09T03:31:01;1.08;;;0.25;;
41115;SDS011;26861;51.824;4.682;2022-09-09T03:33:27;1.45;;;0.40;;
41115;SDS011;26861;51.824;4.682;2022-09-09T03:35:54;1.25;;;0.45;;
41115;SDS011;26861;51.824;4.682;2022-09-09T03:38:21;0.55;;;0.30;;
41115;SDS011;26861;51.824;4.682;2022-09-09T03:40:48;0.55;;;0.30;;
41115;SDS011;26861;51.824;4.682;2022-09-09T03:43:15;1.73;;;0.50;;
41115;SDS011;26861;51.824;4.682;2022-09-09T03:45:45;1.05;;;0.35;;
41115;SDS011;26861;51.824;4.682;2022-09-09T03:48:14;1.25;;;0.43;;
41115;SDS011;26861;51.824;4.682;2022-09-09T03:50:43;1.90;;;0.43;;
41115;SDS011;26861;51.824;4.682;2022-09-09T03:53:13;1.38;;;0.35;;
41115;SDS011;26861;51.824;4.682;2022-09-09T03:55:44;1.55;;;0.60;;
41115;SDS011;26861;51.824;4.682;2022-09-09T03:58:13;0.77;;;0.50;;
41115;SDS011;26861;51.824;4.682;2022-09-09T04:00:40;0.98;;;0.40;;
41115;SDS011;26861;51.824;4.682;2022-09-09T04:03:10;1.00;;;0.50;;
41115;SDS011;26861;51.824;4.682;2022-09-09T04:05:36;0.93;;;0.50;;
41115;SDS011;26861;51.824;4.682;2022-09-09T04:08:05;1.58;;;0.40;;
41115;SDS011;26861;51.824;4.682;2022-09-09T04:10:31;0.57;;;0.30;;
41115;SDS011;26861;51.824;4.682;2022-09-09T04:12:57;1.15;;;0.40;;
41115;SDS011;26861;51.824;4.682;2022-09-09T04:15:24;0.68;;;0.30;;
41115;SDS011;26861;51.824;4.682;2022-09-09T04:17:50;1.00;;;0.40;;
41115;SDS011;26861;51.824;4.682;2022-09-09T04:20:16;1.48;;;0.50;;
41115;SDS011;26861;51.824;4.682;2022-09-09T04:22:42;1.63;;;0.60;;
41115;SDS011;26861;51.824;4.682;2022-09-09T04:25:08;0.80;;;0.30;;
41115;SDS011;26861;51.824;4.682;2022-09-09T04:27:34;1.33;;;0.35;;
41115;SDS011;26861;51.824;4.682;2022-09-09T04:30:00;1.60;;;0.40;;
41115;SDS011;26861;51.824;4.682;2022-09-09T04:32:26;1.88;;;0.52;;
41115;SDS011;26861;51.824;4.682;2022-09-09T04:34:52;0.75;;;0.30;;
41115;SDS011;26861;51.824;4.682;2022-09-09T04:37:18;0.70;;;0.38;;
41115;SDS011;26861;51.824;4.682;2022-09-09T04:39:44;1.23;;;0.40;;
41115;SDS011;26861;51.824;4.682;2022-09-09T04:42:10;1.25;;;0.68;;
41115;SDS011;26861;51.824;4.682;2022-09-09T04:44:36;1.23;;;0.40;;
41115;SDS011;26861;51.824;4.682;2022-09-09T04:47:02;1.63;;;0.47;;
41115;SDS011;26861;51.824;4.682;2022-09-09T04:49:28;0.95;;;0.38;;
41115;SDS011;26861;51.824;4.682;2022-09-09T04:51:55;0.75;;;0.40;;
41115;SDS011;26861;51.824;4.682;2022-09-09T04:54:21;1.33;;;0.38;;
41115;SDS011;26861;51.824;4.682;2022-09-09T04:56:49;1.05;;;0.40;;
41115;SDS011;26861;51.824;4.682;2022-09-09T04:59:15;1.02;;;0.38;;
41115;SDS011;26861;51.824;4.682;2022-09-09T05:01:41;1.65;;;0.55;;
41115;SDS011;26861;51.824;4.682;2022-09-09T05:04:07;1.00;;;0.40;;
41115;SDS011;26861;51.824;4.682;2022-09-09T05:06:34;1.73;;;0.52;;
41115;SDS011;26861;51.824;4.682;2022-09-09T05:09:01;1.02;;;0.30;;
41115;SDS011;26861;51.824;4.682;2022-09-09T05:11:28;2.05;;;0.45;;
41115;SDS011;26861;51.824;4.682;2022-09-09T05:13:55;1.17;;;0.45;;
41115;SDS011;26861;51.824;4.682;2022-09-09T05:16:22;1.33;;;0.63;;
41115;SDS011;26861;51.824;4.682;2022-09-09T05:18:48;1.63;;;0.52;;
41115;SDS011;26861;51.824;4.682;2022-09-09T05:21:15;0.52;;;0.20;;
41115;SDS011;26861;51.824;4.682;2022-09-09T05:23:41;1.23;;;0.50;;
41115;SDS011;26861;51.824;4.682;2022-09-09T05:26:09;1.60;;;0.45;;
41115;SDS011;26861;51.824;4.682;2022-09-09T05:28:38;1.00;;;0.38;;
41115;SDS011;26861;51.824;4.682;2022-09-09T05:31:05;2.33;;;0.60;;
41115;SDS011;26861;51.824;4.682;2022-09-09T05:33:38;1.25;;;0.50;;
41115;SDS011;26861;51.824;4.682;2022-09-09T05:36:09;0.95;;;0.40;;
41115;SDS011;26861;51.824;4.682;2022-09-09T05:41:04;1.90;;;0.30;;
41115;SDS011;26861;51.824;4.682;2022-09-09T05:43:30;0.50;;;0.40;;
41115;SDS011;26861;51.824;4.682;2022-09-09T05:46:04;1.70;;;0.50;;
41115;SDS011;26861;51.824;4.682;2022-09-09T05:48:33;1.02;;;0.47;;
41115;SDS011;26861;51.824;4.682;2022-09-09T05:51:07;1.65;;;0.60;;
41115;SDS011;26861;51.824;4.682;2022-09-09T05:53:43;1.35;;;0.60;;
41115;SDS011;26861;51.824;4.682;2022-09-09T05:56:16;0.40;;;0.30;;
41115;SDS011;26861;51.824;4.682;2022-09-09T05:58:43;1.40;;;0.73;;
41115;SDS011;26861;51.824;4.682;2022-09-09T06:03:35;1.45;;;0.63;;
41115;SDS011;26861;51.824;4.682;2022-09-09T06:06:06;1.52;;;0.52;;
41115;SDS011;26861;51.824;4.682;2022-09-09T06:08:34;0.38;;;0.28;;
41115;SDS011;26861;51.824;4.682;2022-09-09T06:11:07;2.13;;;0.50;;
41115;SDS011;26861;51.824;4.682;2022-09-09T06:13:35;1.33;;;0.38;;
41115;SDS011;26861;51.824;4.682;2022-09-09T06:16:08;0.82;;;0.40;;
41115;SDS011;26861;51.824;4.682;2022-09-09T06:18:39;1.30;;;0.43;;
41115;SDS011;26861;51.824;4.682;2022-09-09T06:21:06;2.20;;;0.52;;
41115;SDS011;26861;51.824;4.682;2022-09-09T06:23:36;2.17;;;0.40;;
41115;SDS011;26861;51.824;4.682;2022-09-09T06:28:38;1.48;;;0.47;;
41115;SDS011;26861;51.824;4.682;2022-09-09T06:31:05;0.80;;;0.40;;
41115;SDS011;26861;51.824;4.682;2022-09-09T06:33:33;1.45;;;0.50;;
41115;SDS011;26861;51.824;4.682;2022-09-09T06:36:00;2.25;;;0.50;;
41115;SDS011;26861;51.824;4.682;2022-09-09T06:38:26;1.83;;;0.47;;
41115;SDS011;26861;51.824;4.682;2022-09-09T06:40:56;2.45;;;0.60;;
41115;SDS011;26861;51.824;4.682;2022-09-09T06:43:23;4.18;;;0.82;;
41115;SDS011;26861;51.824;4.682;2022-09-09T06:45:54;1.23;;;0.45;;
41115;SDS011;26861;51.824;4.682;2022-09-09T06:48:21;1.60;;;0.70;;
41115;SDS011;26861;51.824;4.682;2022-09-09T06:50:47;6.13;;;0.70;;
41115;SDS011;26861;51.824;4.682;2022-09-09T06:53:16;2.03;;;0.57;;
41115;SDS011;26861;51.824;4.682;2022-09-09T06:55:44;4.32;;;1.05;;
41115;SDS011;26861;51.824;4.682;2022-09-09T06:58:10;3.00;;;0.73;;
41115;SDS011;26861;51.824;4.682;2022-09-09T07:00:36;1.48;;;0.60;;
41115;SDS011;26861;51.824;4.682;2022-09-09T07:03:03;2.75;;;0.55;;
41115;SDS011;26861;51.824;4.682;2022-09-09T07:05:31;3.03;;;0.90;;
41115;SDS011;26861;51.824;4.682;2022-09-09T07:07:57;2.60;;;0.70;;
41115;SDS011;26861;51.824;4.682;2022-09-09T07:10:23;3.25;;;0.80;;
41115;SDS011;26861;51.824;4.682;2022-09-09T07:12:50;2.58;;;0.38;;
41115;SDS011;26861;51.824;4.682;2022-09-09T07:15:17;4.85;;;0.90;;
41115;SDS011;26861;51.824;4.682;2022-09-09T07:17:47;4.53;;;0.80;;
41115;SDS011;26861;51.824;4.682;2022-09-09T07:20:14;1.63;;;0.63;;
41115;SDS011;26861;51.824;4.682;2022-09-09T07:22:40;2.67;;;0.65;;
41115;SDS011;26861;51.824;4.682;2022-09-09T07:25:06;1.67;;;0.40;;
41115;SDS011;26861;51.824;4.682;2022-09-09T07:27:32;1.42;;;0.68;;
41115;SDS011;26861;51.824;4.682;2022-09-09T07:29:58;3.85;;;0.93;;
41115;SDS011;26861;51.824;4.682;2022-09-09T07:32:24;5.38;;;1.05;;
41115;SDS011;26861;51.824;4.682;2022-09-09T07:34:51;2.47;;;0.73;;
41115;SDS011;26861;51.824;4.682;2022-09-09T07:37:16;2.72;;;0.88;;
41115;SDS011;26861;51.824;4.682;2022-09-09T07:39:43;3.20;;;0.80;;
41115;SDS011;26861;51.824;4.682;2022-09-09T07:42:09;2.47;;;0.82;;
41115;SDS011;26861;51.824;4.682;2022-09-09T07:44:36;3.45;;;0.70;;
41115;SDS011;26861;51.824;4.682;2022-09-09T07:47:04;1.70;;;0.50;;
41115;SDS011;26861;51.824;4.682;2022-09-09T07:49:30;4.63;;;1.00;;
41115;SDS011;26861;51.824;4.682;2022-09-09T07:51:57;2.85;;;0.77;;
41115;SDS011;26861;51.824;4.682;2022-09-09T07:54:23;3.67;;;0.98;;
41115;SDS011;26861;51.824;4.682;2022-09-09T07:56:50;3.67;;;1.02;;
41115;SDS011;26861;51.824;4.682;2022-09-09T07:59:16;2.40;;;1.02;;
41115;SDS011;26861;51.824;4.682;2022-09-09T08:01:44;2.00;;;0.50;;
41115;SDS011;26861;51.824;4.682;2022-09-09T08:04:16;3.42;;;0.75;;
41115;SDS011;26861;51.824;4.682;2022-09-09T08:06:44;3.58;;;0.90;;
41115;SDS011;26861;51.824;4.682;2022-09-09T08:09:14;2.72;;;0.90;;
41115;SDS011;26861;51.824;4.682;2022-09-09T08:11:41;3.65;;;1.10;;
41115;SDS011;26861;51.824;4.682;2022-09-09T08:14:07;2.80;;;0.88;;
41115;SDS011;26861;51.824;4.682;2022-09-09T08:16:35;2.88;;;0.70;;
41115;SDS011;26861;51.824;4.682;2022-09-09T08:19:06;3.65;;;1.20;;
41115;SDS011;26861;51.824;4.682;2022-09-09T08:21:32;2.63;;;0.40;;
41115;SDS011;26861;51.824;4.682;2022-09-09T08:24:00;3.00;;;0.55;;
41115;SDS011;26861;51.824;4.682;2022-09-09T08:26:28;2.70;;;0.70;;
41115;SDS011;26861;51.824;4.682;2022-09-09T08:28:59;4.55;;;1.13;;
41115;SDS011;26861;51.824;4.682;2022-09-09T08:31:27;3.45;;;0.90;;
41115;SDS011;26861;51.824;4.682;2022-09-09T08:33:53;4.75;;;1.20;;
41115;SDS011;26861;51.824;4.682;2022-09-09T08:36:20;2.85;;;1.02;;
41115;SDS011;26861;51.824;4.682;2022-09-09T08:38:48;8.30;;;1.25;;
41115;SDS011;26861;51.824;4.682;2022-09-09T08:53:00;2.08;;;0.63;;
41115;SDS011;26861;51.824;4.682;2022-09-09T08:57:54;4.63;;;1.30;;
41115;SDS011;26861;51.824;4.682;2022-09-09T09:00:21;3.90;;;1.00;;
41115;SDS011;26861;51.824;4.682;2022-09-09T09:05:45;4.63;;;0.90;;
41115;SDS011;26861;51.824;4.682;2022-09-09T09:08:22;3.20;;;0.55;;
41115;SDS011;26861;51.824;4.682;2022-09-09T09:11:13;4.35;;;1.02;;
41115;SDS011;26861;51.824;4.682;2022-09-09T09:13:41;4.03;;;1.00;;
41115;SDS011;26861;51.824;4.682;2022-09-09T09:16:34;5.63;;;1.45;;
41115;SDS011;26861;51.824;4.682;2022-09-09T09:19:10;6.72;;;1.08;;
41115;SDS011;26861;51.824;4.682;2022-09-09T09:21:41;8.10;;;1.45;;
41115;SDS011;26861;51.824;4.682;2022-09-09T09:26:45;3.55;;;0.90;;
41115;SDS011;26861;51.824;4.682;2022-09-09T09:29:12;2.63;;;1.15;;
41115;SDS011;26861;51.824;4.682;2022-09-09T09:31:51;5.25;;;1.20;;
41115;SDS011;26861;51.824;4.682;2022-09-09T09:34:19;7.80;;;1.23;;
41115;SDS011;26861;51.824;4.682;2022-09-09T09:36:58;5.53;;;1.33;;
41115;SDS011;26861;51.824;4.682;2022-09-09T09:39:29;5.20;;;1.27;;
41115;SDS011;26861;51.824;4.682;2022-09-09T09:41:56;5.30;;;1.02;;
41115;SDS011;26861;51.824;4.682;2022-09-09T09:46:51;3.42;;;1.10;;
41115;SDS011;26861;51.824;4.682;2022-09-09T09:49:17;3.35;;;0.82;;
41115;SDS011;26861;51.824;4.682;2022-09-09T09:51:43;5.90;;;1.15;;
41115;SDS011;26861;51.824;4.682;2022-09-09T09:56:38;5.15;;;1.30;;
41115;SDS011;26861;51.824;4.682;2022-09-09T09:59:05;4.43;;;1.00;;
41115;SDS011;26861;51.824;4.682;2022-09-09T10:01:32;5.55;;;1.13;;
41115;SDS011;26861;51.824;4.682;2022-09-09T10:04:15;5.57;;;1.30;;
41115;SDS011;26861;51.824;4.682;2022-09-09T10:06:43;5.53;;;1.30;;
41115;SDS011;26861;51.824;4.682;2022-09-09T10:09:26;6.38;;;1.30;;
41115;SDS011;26861;51.824;4.682;2022-09-09T10:12:08;5.25;;;1.13;;
41115;SDS011;26861;51.824;4.682;2022-09-09T10:23:05;4.05;;;0.82;;
41115;SDS011;26861;51.824;4.682;2022-09-09T10:25:52;3.05;;;0.98;;
41115;SDS011;26861;51.824;4.682;2022-09-09T10:34:10;6.18;;;1.10;;
41115;SDS011;26861;51.824;4.682;2022-09-09T10:36:52;3.70;;;1.02;;
41115;SDS011;26861;51.824;4.682;2022-09-09T10:39:29;4.00;;;0.90;;
41115;SDS011;26861;51.824;4.682;2022-09-09T10:42:20;3.03;;;1.00;;
41115;SDS011;26861;51.824;4.682;2022-09-09T10:47:58;4.88;;;1.13;;
41115;SDS011;26861;51.824;4.682;2022-09-09T10:50:56;2.22;;;0.90;;
41115;SDS011;26861;51.824;4.682;2022-09-09T10:53:46;2.85;;;0.90;;
41115;SDS011;26861;51.824;4.682;2022-09-09T10:56:22;4.22;;;1.27;;
41115;SDS011;26861;51.824;4.682;2022-09-09T11:01:25;3.10;;;1.08;;
41115;SDS011;26861;51.824;4.682;2022-09-09T11:03:56;3.30;;;0.85;;
41115;SDS011;26861;51.824;4.682;2022-09-09T11:06:32;3.35;;;0.93;;
41115;SDS011;26861;51.824;4.682;2022-09-09T11:09:04;1.77;;;1.20;;
41115;SDS011;26861;51.824;4.682;2022-09-09T11:14:30;2.60;;;0.85;;
41115;SDS011;26861;51.824;4.682;2022-09-09T11:17:06;3.88;;;0.80;;
41115;SDS011;26861;51.824;4.682;2022-09-09T11:19:40;3.75;;;0.77;;
41115;SDS011;26861;51.824;4.682;2022-09-09T11:22:15;3.47;;;0.88;;
41115;SDS011;26861;51.824;4.682;2022-09-09T11:27:24;4.57;;;1.02;;
41115;SDS011;26861;51.824;4.682;2022-09-09T11:30:01;2.00;;;1.00;;
41115;SDS011;26861;51.824;4.682;2022-09-09T11:32:47;3.55;;;0.60;;
41115;SDS011;26861;51.824;4.682;2022-09-09T11:38:16;3.83;;;0.82;;
41115;SDS011;26861;51.824;4.682;2022-09-09T11:40:46;2.25;;;0.80;;
41115;SDS011;26861;51.824;4.682;2022-09-09T11:43:23;3.05;;;0.93;;
41115;SDS011;26861;51.824;4.682;2022-09-09T11:45:57;2.95;;;1.08;;
41115;SDS011;26861;51.824;4.682;2022-09-09T11:48:57;2.45;;;0.98;;
41115;SDS011;26861;51.824;4.682;2022-09-09T11:56:41;3.35;;;1.30;;
41115;SDS011;26861;51.824;4.682;2022-09-09T11:59:22;2.47;;;0.80;;
41115;SDS011;26861;51.824;4.682;2022-09-09T12:02:35;2.55;;;0.80;;
41115;SDS011;26861;51.824;4.682;2022-09-09T12:04:43;2.50;;;0.90;;
41115;SDS011;26861;51.824;4.682;2022-09-09T12:07:32;2.05;;;0.80;;
41115;SDS011;26861;51.824;4.682;2022-09-09T12:12:46;5.47;;;1.15;;
41115;SDS011;26861;51.824;4.682;2022-09-09T12:17:45;2.83;;;0.85;;
41115;SDS011;26861;51.824;4.682;2022-09-09T12:20:14;2.47;;;0.90;;
41115;SDS011;26861;51.824;4.682;2022-09-09T12:28:11;2.22;;;0.65;;
41115;SDS011;26861;51.824;4.682;2022-09-09T12:31:03;3.20;;;0.88;;
41115;SDS011;26861;51.824;4.682;2022-09-09T12:33:34;5.45;;;1.00;;
41115;SDS011;26861;51.824;4.682;2022-09-09T12:36:02;2.38;;;0.77;;
41115;SDS011;26861;51.824;4.682;2022-09-09T12:38:32;1.92;;;0.70;;
41115;SDS011;26861;51.824;4.682;2022-09-09T12:41:00;3.58;;;0.93;;
41115;SDS011;26861;51.824;4.682;2022-09-09T12:43:27;5.55;;;1.30;;
41115;SDS011;26861;51.824;4.682;2022-09-09T12:46:01;3.95;;;0.73;;
41115;SDS011;26861;51.824;4.682;2022-09-09T12:48:35;2.97;;;1.02;;
41115;SDS011;26861;51.824;4.682;2022-09-09T12:51:03;4.47;;;1.00;;
41115;SDS011;26861;51.824;4.682;2022-09-09T12:53:33;4.70;;;1.10;;
41115;SDS011;26861;51.824;4.682;2022-09-09T12:56:07;2.05;;;0.75;;
41115;SDS011;26861;51.824;4.682;2022-09-09T12:58:44;3.72;;;1.38;;
41115;SDS011;26861;51.824;4.682;2022-09-09T13:01:18;5.43;;;0.88;;
41115;SDS011;26861;51.824;4.682;2022-09-09T13:03:47;5.57;;;0.98;;
41115;SDS011;26861;51.824;4.682;2022-09-09T13:06:17;3.50;;;1.05;;
41115;SDS011;26861;51.824;4.682;2022-09-09T13:08:47;3.75;;;1.35;;
41115;SDS011;26861;51.824;4.682;2022-09-09T13:11:14;4.53;;;1.08;;
41115;SDS011;26861;51.824;4.682;2022-09-09T13:13:43;4.63;;;1.10;;
41115;SDS011;26861;51.824;4.682;2022-09-09T13:16:38;4.70;;;1.33;;
41115;SDS011;26861;51.824;4.682;2022-09-09T13:19:07;5.10;;;0.90;;
41115;SDS011;26861;51.824;4.682;2022-09-09T13:21:34;3.03;;;1.00;;
41115;SDS011;26861;51.824;4.682;2022-09-09T13:24:00;3.83;;;1.15;;
41115;SDS011;26861;51.824;4.682;2022-09-09T13:26:28;1.90;;;0.63;;
41115;SDS011;26861;51.824;4.682;2022-09-09T13:28:55;3.83;;;1.35;;
41115;SDS011;26861;51.824;4.682;2022-09-09T13:31:33;3.08;;;1.20;;
41115;SDS011;26861;51.824;4.682;2022-09-09T13:34:10;1.25;;;0.60;;
41115;SDS011;26861;51.824;4.682;2022-09-09T13:36:38;5.75;;;0.90;;
41115;SDS011;26861;51.824;4.682;2022-09-09T13:39:12;4.47;;;1.15;;
41115;SDS011;26861;51.824;4.682;2022-09-09T13:41:44;2.88;;;0.82;;
41115;SDS011;26861;51.824;4.682;2022-09-09T13:44:21;4.03;;;1.15;;
41115;SDS011;26861;51.824;4.682;2022-09-09T13:49:39;3.10;;;0.73;;
41115;SDS011;26861;51.824;4.682;2022-09-09T13:52:09;2.78;;;0.70;;
41115;SDS011;26861;51.824;4.682;2022-09-09T13:54:36;2.25;;;0.77;;
41115;SDS011;26861;51.824;4.682;2022-09-09T13:57:02;2.00;;;0.70;;
41115;SDS011;26861;51.824;4.682;2022-09-09T13:59:29;4.30;;;0.77;;
41115;SDS011;26861;51.824;4.682;2022-09-09T14:01:56;2.95;;;0.82;;
41115;SDS011;26861;51.824;4.682;2022-09-09T14:04:22;3.42;;;0.77;;
41115;SDS011;26861;51.824;4.682;2022-09-09T14:06:49;4.60;;;1.17;;
41115;SDS011;26861;51.824;4.682;2022-09-09T14:09:16;1.50;;;0.63;;
41115;SDS011;26861;51.824;4.682;2022-09-09T14:11:43;3.13;;;0.82;;
41115;SDS011;26861;51.824;4.682;2022-09-09T14:14:10;2.30;;;0.70;;
41115;SDS011;26861;51.824;4.682;2022-09-09T14:16:36;1.92;;;0.77;;
41115;SDS011;26861;51.824;4.682;2022-09-09T14:19:02;3.17;;;0.80;;
41115;SDS011;26861;51.824;4.682;2022-09-09T14:21:29;1.58;;;0.88;;
41115;SDS011;26861;51.824;4.682;2022-09-09T14:23:55;3.42;;;0.88;;
41115;SDS011;26861;51.824;4.682;2022-09-09T14:26:23;3.33;;;0.95;;
41115;SDS011;26861;51.824;4.682;2022-09-09T14:28:49;2.85;;;0.80;;
41115;SDS011;26861;51.824;4.682;2022-09-09T14:31:15;1.10;;;0.50;;
41115;SDS011;26861;51.824;4.682;2022-09-09T14:33:44;1.75;;;0.60;;
41115;SDS011;26861;51.824;4.682;2022-09-09T14:36:10;2.22;;;0.85;;
41115;SDS011;26861;51.824;4.682;2022-09-09T14:38:37;3.03;;;0.80;;
41115;SDS011;26861;51.824;4.682;2022-09-09T14:41:04;3.67;;;0.90;;
41115;SDS011;26861;51.824;4.682;2022-09-09T14:43:31;1.85;;;0.50;;
41115;SDS011;26861;51.824;4.682;2022-09-09T14:45:57;2.45;;;1.00;;
41115;SDS011;26861;51.824;4.682;2022-09-09T14:48:23;2.13;;;0.85;;
41115;SDS011;26861;51.824;4.682;2022-09-09T14:50:49;1.67;;;0.70;;
41115;SDS011;26861;51.824;4.682;2022-09-09T14:53:16;1.23;;;0.57;;
41115;SDS011;26861;51.824;4.682;2022-09-09T14:55:41;1.58;;;0.65;;
41115;SDS011;26861;51.824;4.682;2022-09-09T14:58:07;2.20;;;0.77;;
41115;SDS011;26861;51.824;4.682;2022-09-09T15:00:33;1.63;;;0.60;;
41115;SDS011;26861;51.824;4.682;2022-09-09T15:02:59;2.30;;;0.77;;
41115;SDS011;26861;51.824;4.682;2022-09-09T15:05:25;2.75;;;0.70;;
41115;SDS011;26861;51.824;4.682;2022-09-09T15:07:52;3.45;;;0.95;;
41115;SDS011;26861;51.824;4.682;2022-09-09T15:10:19;1.77;;;0.40;;
41115;SDS011;26861;51.824;4.682;2022-09-09T15:12:45;2.95;;;0.80;;
41115;SDS011;26861;51.824;4.682;2022-09-09T15:15:11;1.98;;;0.50;;
41115;SDS011;26861;51.824;4.682;2022-09-09T15:17:37;2.60;;;0.70;;
41115;SDS011;26861;51.824;4.682;2022-09-09T15:20:03;1.00;;;0.52;;
41115;SDS011;26861;51.824;4.682;2022-09-09T15:22:30;0.85;;;0.50;;
41115;SDS011;26861;51.824;4.682;2022-09-09T15:24:56;1.83;;;0.50;;
41115;SDS011;26861;51.824;4.682;2022-09-09T15:27:22;1.33;;;0.60;;
41115;SDS011;26861;51.824;4.682;2022-09-09T15:29:49;0.93;;;0.40;;
41115;SDS011;26861;51.824;4.682;2022-09-09T15:32:16;1.27;;;0.47;;
41115;SDS011;26861;51.824;4.682;2022-09-09T15:34:42;3.65;;;0.75;;
41115;SDS011;26861;51.824;4.682;2022-09-09T15:37:09;1.75;;;0.50;;
41115;SDS011;26861;51.824;4.682;2022-09-09T15:39:38;2.13;;;0.68;;
41115;SDS011;26861;51.824;4.682;2022-09-09T15:42:04;1.92;;;0.80;;
41115;SDS011;26861;51.824;4.682;2022-09-09T15:44:37;1.30;;;0.70;;
41115;SDS011;26861;51.824;4.682;2022-09-09T15:47:04;2.63;;;0.70;;
41115;SDS011;26861;51.824;4.682;2022-09-09T15:49:30;1.15;;;0.65;;
41115;SDS011;26861;51.824;4.682;2022-09-09T15:51:57;1.25;;;0.63;;
41115;SDS011;26861;51.824;4.682;2022-09-09T15:54:28;1.75;;;0.85;;
41115;SDS011;26861;51.824;4.682;2022-09-09T15:56:57;1.30;;;0.90;;
41115;SDS011;26861;51.824;4.682;2022-09-09T15:59:25;2.85;;;0.80;;
41115;SDS011;26861;51.824;4.682;2022-09-09T16:01:52;2.50;;;1.00;;
41115;SDS011;26861;51.824;4.682;2022-09-09T16:04:20;1.75;;;0.80;;
41115;SDS011;26861;51.824;4.682;2022-09-09T16:06:56;2.75;;;1.20;;
41115;SDS011;26861;51.824;4.682;2022-09-09T16:09:24;3.22;;;0.82;;
41115;SDS011;26861;51.824;4.682;2022-09-09T16:11:51;1.20;;;0.60;;
41115;SDS011;26861;51.824;4.682;2022-09-09T16:14:18;1.90;;;0.80;;
41115;SDS011;26861;51.824;4.682;2022-09-09T16:16:44;1.08;;;0.70;;
41115;SDS011;26861;51.824;4.682;2022-09-09T16:19:11;1.45;;;0.50;;
41115;SDS011;26861;51.824;4.682;2022-09-09T16:21:42;2.35;;;0.85;;
41115;SDS011;26861;51.824;4.682;2022-09-09T16:24:10;0.98;;;0.70;;
41115;SDS011;26861;51.824;4.682;2022-09-09T16:26:39;1.60;;;0.80;;
41115;SDS011;26861;51.824;4.682;2022-09-09T16:29:10;1.80;;;0.82;;
41115;SDS011;26861;51.824;4.682;2022-09-09T16:31:36;4.00;;;0.77;;
41115;SDS011;26861;51.824;4.682;2022-09-09T16:34:02;1.42;;;0.55;;
41115;SDS011;26861;51.824;4.682;2022-09-09T16:36:30;1.52;;;0.77;;
41115;SDS011;26861;51.824;4.682;2022-09-09T16:38:58;2.65;;;0.80;;
41115;SDS011;26861;51.824;4.682;2022-09-09T16:41:25;2.03;;;0.85;;
41115;SDS011;26861;51.824;4.682;2022-09-09T16:43:53;2.13;;;0.60;;
41115;SDS011;26861;51.824;4.682;2022-09-09T16:46:24;1.38;;;0.60;;
41115;SDS011;26861;51.824;4.682;2022-09-09T16:48:50;1.20;;;0.70;;
41115;SDS011;26861;51.824;4.682;2022-09-09T16:51:18;1.42;;;0.70;;
41115;SDS011;26861;51.824;4.682;2022-09-09T16:53:48;1.65;;;0.60;;
41115;SDS011;26861;51.824;4.682;2022-09-09T16:56:33;1.05;;;0.45;;
41115;SDS011;26861;51.824;4.682;2022-09-09T16:59:02;2.22;;;0.55;;
41115;SDS011;26861;51.824;4.682;2022-09-09T17:01:31;5.28;;;0.80;;
41115;SDS011;26861;51.824;4.682;2022-09-09T17:04:01;2.58;;;0.90;;
41115;SDS011;26861;51.824;4.682;2022-09-09T17:06:28;3.58;;;0.88;;